Dalanzadgad, Mongolia
Current Conditions -  °F | °C
As of 2:00 AM on Thursday 27 Nov 2014 (Local Time) from ZMUB Reporting Station
Clear Clear  
Wind Chill: -13°   Ceiling: Unl
Heat Index: -13°   Visibility: 5mi
Dew Point: -20°   Wind: 2mph
Humidity: 70%   Direction: NA
Pressure: 29.88"   Gusts: NA
Location:  43.58°N, 104.43°E
Report Text: ZMUB 261800Z VRB01MPS 8000NW NSC M25/M29 Q1012 NOSIG RMK QFE651.9 67 NT
Loading
Personal Weather Stations






























Interactive Weather Map New forecast layout! Learn more

10-Day Weather Forecast

Advertisements
Track Severe Weather on mobile